sensor_id;sensor_type;location;lat;lon;timestamp;P1;durP1;ratioP1;P2;durP2;ratioP2
9374;SDS011;4727;51.202;6.344;2022-07-06T00:02:24;5.40;;;3.73;;
9374;SDS011;4727;51.202;6.344;2022-07-06T00:04:50;4.10;;;3.70;;
9374;SDS011;4727;51.202;6.344;2022-07-06T00:07:16;6.83;;;3.87;;
9374;SDS011;4727;51.202;6.344;2022-07-06T00:09:41;3.63;;;3.33;;
9374;SDS011;4727;51.202;6.344;2022-07-06T00:12:07;4.10;;;3.67;;
9374;SDS011;4727;51.202;6.344;2022-07-06T00:14:33;3.97;;;3.57;;
9374;SDS011;4727;51.202;6.344;2022-07-06T00:17:00;3.63;;;3.20;;
9374;SDS011;4727;51.202;6.344;2022-07-06T00:19:25;4.40;;;3.30;;
9374;SDS011;4727;51.202;6.344;2022-07-06T00:21:51;4.33;;;3.93;;
9374;SDS011;4727;51.202;6.344;2022-07-06T00:24:16;5.73;;;3.50;;
9374;SDS011;4727;51.202;6.344;2022-07-06T00:26:43;4.33;;;3.50;;
9374;SDS011;4727;51.202;6.344;2022-07-06T00:29:09;3.77;;;3.43;;
9374;SDS011;4727;51.202;6.344;2022-07-06T00:31:35;3.50;;;2.90;;
9374;SDS011;4727;51.202;6.344;2022-07-06T00:34:01;3.97;;;3.60;;
9374;SDS011;4727;51.202;6.344;2022-07-06T00:36:26;3.87;;;3.50;;
9374;SDS011;4727;51.202;6.344;2022-07-06T00:38:52;3.63;;;3.33;;
9374;SDS011;4727;51.202;6.344;2022-07-06T00:41:18;4.80;;;3.60;;
9374;SDS011;4727;51.202;6.344;2022-07-06T00:43:47;4.13;;;3.30;;
9374;SDS011;4727;51.202;6.344;2022-07-06T00:46:14;3.60;;;3.30;;
9374;SDS011;4727;51.202;6.344;2022-07-06T00:48:40;4.00;;;3.27;;
9374;SDS011;4727;51.202;6.344;2022-07-06T00:51:06;4.87;;;3.47;;
9374;SDS011;4727;51.202;6.344;2022-07-06T00:53:31;4.47;;;3.33;;
9374;SDS011;4727;51.202;6.344;2022-07-06T00:55:57;3.87;;;3.57;;
9374;SDS011;4727;51.202;6.344;2022-07-06T00:58:23;4.90;;;4.00;;
9374;SDS011;4727;51.202;6.344;2022-07-06T01:00:49;4.07;;;3.70;;
9374;SDS011;4727;51.202;6.344;2022-07-06T01:03:15;4.57;;;3.70;;
9374;SDS011;4727;51.202;6.344;2022-07-06T01:05:41;3.93;;;3.60;;
9374;SDS011;4727;51.202;6.344;2022-07-06T01:08:06;4.63;;;3.97;;
9374;SDS011;4727;51.202;6.344;2022-07-06T01:10:32;4.93;;;3.87;;
9374;SDS011;4727;51.202;6.344;2022-07-06T01:12:58;4.20;;;3.90;;
9374;SDS011;4727;51.202;6.344;2022-07-06T01:15:24;5.40;;;4.37;;
9374;SDS011;4727;51.202;6.344;2022-07-06T01:17:50;5.47;;;4.27;;
9374;SDS011;4727;51.202;6.344;2022-07-06T01:20:17;3.97;;;3.67;;
9374;SDS011;4727;51.202;6.344;2022-07-06T01:22:45;5.27;;;4.80;;
9374;SDS011;4727;51.202;6.344;2022-07-06T01:25:12;4.77;;;4.43;;
9374;SDS011;4727;51.202;6.344;2022-07-06T01:27:39;5.10;;;4.70;;
9374;SDS011;4727;51.202;6.344;2022-07-06T01:30:07;4.63;;;4.33;;
9374;SDS011;4727;51.202;6.344;2022-07-06T01:32:34;4.80;;;4.40;;
9374;SDS011;4727;51.202;6.344;2022-07-06T01:35:00;4.80;;;4.40;;
9374;SDS011;4727;51.202;6.344;2022-07-06T01:37:27;4.80;;;4.03;;
9374;SDS011;4727;51.202;6.344;2022-07-06T01:39:53;5.60;;;4.60;;
9374;SDS011;4727;51.202;6.344;2022-07-06T01:42:18;4.80;;;4.40;;
9374;SDS011;4727;51.202;6.344;2022-07-06T01:44:44;4.80;;;4.40;;
9374;SDS011;4727;51.202;6.344;2022-07-06T01:47:10;4.67;;;4.27;;
9374;SDS011;4727;51.202;6.344;2022-07-06T01:49:36;4.70;;;4.13;;
9374;SDS011;4727;51.202;6.344;2022-07-06T01:52:02;5.40;;;4.77;;
9374;SDS011;4727;51.202;6.344;2022-07-06T01:54:28;4.50;;;4.10;;
9374;SDS011;4727;51.202;6.344;2022-07-06T01:56:53;5.37;;;4.87;;
9374;SDS011;4727;51.202;6.344;2022-07-06T01:59:19;5.30;;;4.80;;
9374;SDS011;4727;51.202;6.344;2022-07-06T02:01:45;4.53;;;4.23;;
9374;SDS011;4727;51.202;6.344;2022-07-06T02:04:10;5.97;;;4.90;;
9374;SDS011;4727;51.202;6.344;2022-07-06T02:06:36;6.37;;;5.33;;
9374;SDS011;4727;51.202;6.344;2022-07-06T02:09:01;4.63;;;4.30;;
9374;SDS011;4727;51.202;6.344;2022-07-06T02:11:27;4.53;;;4.10;;
9374;SDS011;4727;51.202;6.344;2022-07-06T02:13:53;5.27;;;4.80;;
9374;SDS011;4727;51.202;6.344;2022-07-06T02:16:19;5.07;;;4.63;;
9374;SDS011;4727;51.202;6.344;2022-07-06T02:18:45;4.97;;;4.47;;
9374;SDS011;4727;51.202;6.344;2022-07-06T02:21:10;4.90;;;4.47;;
9374;SDS011;4727;51.202;6.344;2022-07-06T02:23:36;6.40;;;5.30;;
9374;SDS011;4727;51.202;6.344;2022-07-06T02:26:02;5.53;;;4.53;;
9374;SDS011;4727;51.202;6.344;2022-07-06T02:28:29;5.60;;;5.00;;
9374;SDS011;4727;51.202;6.344;2022-07-06T02:30:54;5.90;;;4.70;;
9374;SDS011;4727;51.202;6.344;2022-07-06T02:33:20;5.97;;;5.20;;
9374;SDS011;4727;51.202;6.344;2022-07-06T02:35:46;6.07;;;4.97;;
9374;SDS011;4727;51.202;6.344;2022-07-06T02:38:12;7.20;;;5.10;;
9374;SDS011;4727;51.202;6.344;2022-07-06T02:40:38;5.10;;;4.60;;
9374;SDS011;4727;51.202;6.344;2022-07-06T02:43:03;5.27;;;4.93;;
9374;SDS011;4727;51.202;6.344;2022-07-06T02:45:30;6.37;;;5.20;;
9374;SDS011;4727;51.202;6.344;2022-07-06T02:47:56;5.43;;;5.03;;
9374;SDS011;4727;51.202;6.344;2022-07-06T02:50:22;5.47;;;4.97;;
9374;SDS011;4727;51.202;6.344;2022-07-06T02:52:48;5.93;;;5.40;;
9374;SDS011;4727;51.202;6.344;2022-07-06T02:55:14;6.90;;;5.00;;
9374;SDS011;4727;51.202;6.344;2022-07-06T02:57:40;6.27;;;5.43;;
9374;SDS011;4727;51.202;6.344;2022-07-06T03:00:05;6.30;;;5.80;;
9374;SDS011;4727;51.202;6.344;2022-07-06T03:02:32;6.07;;;5.50;;
9374;SDS011;4727;51.202;6.344;2022-07-06T03:04:57;6.93;;;5.63;;
9374;SDS011;4727;51.202;6.344;2022-07-06T03:07:23;6.23;;;5.63;;
9374;SDS011;4727;51.202;6.344;2022-07-06T03:09:49;5.73;;;5.30;;
9374;SDS011;4727;51.202;6.344;2022-07-06T03:12:14;8.43;;;6.00;;
9374;SDS011;4727;51.202;6.344;2022-07-06T03:14:41;6.30;;;5.73;;
9374;SDS011;4727;51.202;6.344;2022-07-06T03:17:06;6.83;;;6.20;;
9374;SDS011;4727;51.202;6.344;2022-07-06T03:19:32;6.70;;;6.03;;
9374;SDS011;4727;51.202;6.344;2022-07-06T03:21:58;7.70;;;6.00;;
9374;SDS011;4727;51.202;6.344;2022-07-06T03:24:23;6.70;;;6.10;;
9374;SDS011;4727;51.202;6.344;2022-07-06T03:26:49;6.50;;;6.00;;
9374;SDS011;4727;51.202;6.344;2022-07-06T03:29:15;6.33;;;5.67;;
9374;SDS011;4727;51.202;6.344;2022-07-06T03:31:40;7.17;;;6.07;;
9374;SDS011;4727;51.202;6.344;2022-07-06T03:34:06;6.50;;;5.90;;
9374;SDS011;4727;51.202;6.344;2022-07-06T03:36:31;6.43;;;5.93;;
9374;SDS011;4727;51.202;6.344;2022-07-06T03:38:57;6.50;;;5.90;;
9374;SDS011;4727;51.202;6.344;2022-07-06T03:41:23;5.93;;;5.40;;
9374;SDS011;4727;51.202;6.344;2022-07-06T03:43:49;11.07;;;6.23;;
9374;SDS011;4727;51.202;6.344;2022-07-06T03:46:14;6.40;;;5.83;;
9374;SDS011;4727;51.202;6.344;2022-07-06T03:48:40;6.50;;;5.90;;
9374;SDS011;4727;51.202;6.344;2022-07-06T03:51:05;6.60;;;5.93;;
9374;SDS011;4727;51.202;6.344;2022-07-06T03:53:32;6.47;;;5.83;;
9374;SDS011;4727;51.202;6.344;2022-07-06T03:55:57;6.50;;;5.90;;
9374;SDS011;4727;51.202;6.344;2022-07-06T03:58:42;6.80;;;6.10;;
9374;SDS011;4727;51.202;6.344;2022-07-06T04:01:07;6.10;;;5.47;;
9374;SDS011;4727;51.202;6.344;2022-07-06T04:03:33;6.73;;;6.13;;
9374;SDS011;4727;51.202;6.344;2022-07-06T04:05:58;7.10;;;6.33;;
9374;SDS011;4727;51.202;6.344;2022-07-06T04:08:24;6.87;;;6.17;;
9374;SDS011;4727;51.202;6.344;2022-07-06T04:10:49;6.47;;;5.90;;
9374;SDS011;4727;51.202;6.344;2022-07-06T04:13:15;7.33;;;6.00;;
9374;SDS011;4727;51.202;6.344;2022-07-06T04:15:41;6.13;;;5.63;;
9374;SDS011;4727;51.202;6.344;2022-07-06T04:18:06;6.57;;;5.97;;
9374;SDS011;4727;51.202;6.344;2022-07-06T04:20:32;6.80;;;6.20;;
9374;SDS011;4727;51.202;6.344;2022-07-06T04:22:58;6.70;;;5.83;;
9374;SDS011;4727;51.202;6.344;2022-07-06T04:25:24;8.27;;;6.33;;
9374;SDS011;4727;51.202;6.344;2022-07-06T04:27:49;7.00;;;6.37;;
9374;SDS011;4727;51.202;6.344;2022-07-06T04:30:15;6.83;;;5.90;;
9374;SDS011;4727;51.202;6.344;2022-07-06T04:32:41;6.90;;;6.17;;
9374;SDS011;4727;51.202;6.344;2022-07-06T04:35:07;7.03;;;6.17;;
9374;SDS011;4727;51.202;6.344;2022-07-06T04:37:32;7.73;;;7.03;;
9374;SDS011;4727;51.202;6.344;2022-07-06T04:39:58;7.63;;;6.17;;
9374;SDS011;4727;51.202;6.344;2022-07-06T04:42:24;7.50;;;6.63;;
9374;SDS011;4727;51.202;6.344;2022-07-06T04:44:50;6.80;;;6.20;;
9374;SDS011;4727;51.202;6.344;2022-07-06T04:47:16;7.30;;;6.53;;
9374;SDS011;4727;51.202;6.344;2022-07-06T04:49:42;6.73;;;6.10;;
9374;SDS011;4727;51.202;6.344;2022-07-06T04:52:08;7.30;;;6.20;;
9374;SDS011;4727;51.202;6.344;2022-07-06T04:54:34;7.03;;;6.33;;
9374;SDS011;4727;51.202;6.344;2022-07-06T04:56:59;7.50;;;6.50;;
9374;SDS011;4727;51.202;6.344;2022-07-06T04:59:25;7.33;;;6.57;;
9374;SDS011;4727;51.202;6.344;2022-07-06T05:01:51;7.10;;;6.50;;
9374;SDS011;4727;51.202;6.344;2022-07-06T05:04:16;7.10;;;6.50;;
9374;SDS011;4727;51.202;6.344;2022-07-06T05:06:44;8.17;;;7.40;;
9374;SDS011;4727;51.202;6.344;2022-07-06T05:09:10;9.37;;;6.77;;
9374;SDS011;4727;51.202;6.344;2022-07-06T05:11:36;7.33;;;6.63;;
9374;SDS011;4727;51.202;6.344;2022-07-06T05:14:02;7.47;;;6.27;;
9374;SDS011;4727;51.202;6.344;2022-07-06T05:16:28;6.83;;;6.23;;
9374;SDS011;4727;51.202;6.344;2022-07-06T05:18:54;7.20;;;6.53;;
9374;SDS011;4727;51.202;6.344;2022-07-06T05:21:19;8.73;;;6.97;;
9374;SDS011;4727;51.202;6.344;2022-07-06T05:23:45;6.53;;;5.90;;
9374;SDS011;4727;51.202;6.344;2022-07-06T05:26:10;6.40;;;5.80;;
9374;SDS011;4727;51.202;6.344;2022-07-06T05:28:36;7.47;;;6.50;;
9374;SDS011;4727;51.202;6.344;2022-07-06T05:31:02;6.93;;;6.23;;
9374;SDS011;4727;51.202;6.344;2022-07-06T05:33:27;7.00;;;6.30;;
9374;SDS011;4727;51.202;6.344;2022-07-06T05:35:53;8.10;;;7.40;;
9374;SDS011;4727;51.202;6.344;2022-07-06T05:38:19;7.23;;;6.60;;
9374;SDS011;4727;51.202;6.344;2022-07-06T05:40:45;7.30;;;5.90;;
9374;SDS011;4727;51.202;6.344;2022-07-06T05:43:10;9.17;;;8.23;;
9374;SDS011;4727;51.202;6.344;2022-07-06T05:45:36;6.90;;;6.20;;
9374;SDS011;4727;51.202;6.344;2022-07-06T05:48:01;7.93;;;6.30;;
9374;SDS011;4727;51.202;6.344;2022-07-06T05:50:46;8.37;;;5.73;;
9374;SDS011;4727;51.202;6.344;2022-07-06T05:53:12;7.00;;;5.40;;
9374;SDS011;4727;51.202;6.344;2022-07-06T05:55:37;5.50;;;5.03;;
9374;SDS011;4727;51.202;6.344;2022-07-06T05:58:03;6.07;;;5.57;;
9374;SDS011;4727;51.202;6.344;2022-07-06T06:00:29;9.80;;;6.10;;
9374;SDS011;4727;51.202;6.344;2022-07-06T06:02:55;8.77;;;5.83;;
9374;SDS011;4727;51.202;6.344;2022-07-06T06:05:23;6.30;;;5.50;;
9374;SDS011;4727;51.202;6.344;2022-07-06T06:07:48;6.67;;;5.27;;
9374;SDS011;4727;51.202;6.344;2022-07-06T06:10:16;5.67;;;4.53;;
9374;SDS011;4727;51.202;6.344;2022-07-06T06:12:43;5.20;;;4.70;;
9374;SDS011;4727;51.202;6.344;2022-07-06T06:15:09;5.60;;;4.97;;
9374;SDS011;4727;51.202;6.344;2022-07-06T06:17:36;4.93;;;4.10;;
9374;SDS011;4727;51.202;6.344;2022-07-06T06:20:03;5.50;;;4.63;;
9374;SDS011;4727;51.202;6.344;2022-07-06T06:22:31;4.50;;;4.00;;
9374;SDS011;4727;51.202;6.344;2022-07-06T06:25:08;4.47;;;4.07;;
9374;SDS011;4727;51.202;6.344;2022-07-06T06:27:34;4.73;;;3.97;;
9374;SDS011;4727;51.202;6.344;2022-07-06T06:29:59;4.27;;;3.30;;
9374;SDS011;4727;51.202;6.344;2022-07-06T06:32:25;4.37;;;3.27;;
9374;SDS011;4727;51.202;6.344;2022-07-06T06:34:51;3.60;;;3.30;;
9374;SDS011;4727;51.202;6.344;2022-07-06T06:37:16;3.37;;;3.07;;
9374;SDS011;4727;51.202;6.344;2022-07-06T06:39:42;2.80;;;2.67;;
9374;SDS011;4727;51.202;6.344;2022-07-06T06:42:07;4.03;;;2.67;;
9374;SDS011;4727;51.202;6.344;2022-07-06T06:44:33;4.50;;;3.20;;
9374;SDS011;4727;51.202;6.344;2022-07-06T06:46:58;4.47;;;2.47;;
9374;SDS011;4727;51.202;6.344;2022-07-06T06:49:24;5.00;;;2.83;;
9374;SDS011;4727;51.202;6.344;2022-07-06T06:51:50;3.27;;;2.83;;
9374;SDS011;4727;51.202;6.344;2022-07-06T06:54:15;4.77;;;2.50;;
9374;SDS011;4727;51.202;6.344;2022-07-06T06:56:41;3.60;;;2.80;;
9374;SDS011;4727;51.202;6.344;2022-07-06T06:59:06;2.60;;;2.40;;
9374;SDS011;4727;51.202;6.344;2022-07-06T07:01:32;3.83;;;2.43;;
9374;SDS011;4727;51.202;6.344;2022-07-06T07:03:57;3.37;;;2.33;;
9374;SDS011;4727;51.202;6.344;2022-07-06T07:06:26;5.37;;;2.47;;
9374;SDS011;4727;51.202;6.344;2022-07-06T07:08:52;5.37;;;2.87;;
9374;SDS011;4727;51.202;6.344;2022-07-06T07:11:18;4.53;;;2.50;;
9374;SDS011;4727;51.202;6.344;2022-07-06T07:13:54;2.20;;;2.10;;
9374;SDS011;4727;51.202;6.344;2022-07-06T07:16:19;2.83;;;2.17;;
9374;SDS011;4727;51.202;6.344;2022-07-06T07:18:45;3.07;;;2.10;;
9374;SDS011;4727;51.202;6.344;2022-07-06T07:21:11;2.93;;;1.57;;
9374;SDS011;4727;51.202;6.344;2022-07-06T07:23:36;2.10;;;1.60;;
9374;SDS011;4727;51.202;6.344;2022-07-06T07:26:02;3.83;;;1.93;;
9374;SDS011;4727;51.202;6.344;2022-07-06T07:28:27;3.67;;;1.77;;
9374;SDS011;4727;51.202;6.344;2022-07-06T07:30:53;3.00;;;1.60;;
9374;SDS011;4727;51.202;6.344;2022-07-06T07:33:19;4.70;;;1.90;;
9374;SDS011;4727;51.202;6.344;2022-07-06T07:35:45;3.20;;;1.53;;
9374;SDS011;4727;51.202;6.344;2022-07-06T07:38:10;2.43;;;1.50;;
9374;SDS011;4727;51.202;6.344;2022-07-06T07:40:36;1.50;;;1.40;;
9374;SDS011;4727;51.202;6.344;2022-07-06T07:43:02;1.70;;;1.57;;
9374;SDS011;4727;51.202;6.344;2022-07-06T07:45:27;2.87;;;1.50;;
9374;SDS011;4727;51.202;6.344;2022-07-06T07:47:53;1.60;;;1.50;;
9374;SDS011;4727;51.202;6.344;2022-07-06T07:50:19;1.27;;;1.20;;
9374;SDS011;4727;51.202;6.344;2022-07-06T07:52:44;2.03;;;1.30;;
9374;SDS011;4727;51.202;6.344;2022-07-06T07:55:10;2.03;;;1.37;;
9374;SDS011;4727;51.202;6.344;2022-07-06T07:57:36;1.53;;;1.30;;
9374;SDS011;4727;51.202;6.344;2022-07-06T08:00:02;1.37;;;0.97;;
9374;SDS011;4727;51.202;6.344;2022-07-06T08:02:29;2.63;;;1.30;;
9374;SDS011;4727;51.202;6.344;2022-07-06T08:04:55;2.40;;;1.23;;
9374;SDS011;4727;51.202;6.344;2022-07-06T08:07:20;1.80;;;1.10;;
9374;SDS011;4727;51.202;6.344;2022-07-06T08:09:46;1.83;;;1.73;;
9374;SDS011;4727;51.202;6.344;2022-07-06T08:12:12;1.93;;;1.20;;
9374;SDS011;4727;51.202;6.344;2022-07-06T08:14:40;1.30;;;1.20;;
9374;SDS011;4727;51.202;6.344;2022-07-06T08:17:06;1.60;;;1.50;;
9374;SDS011;4727;51.202;6.344;2022-07-06T08:19:32;0.80;;;0.80;;
9374;SDS011;4727;51.202;6.344;2022-07-06T08:21:58;1.13;;;0.97;;
9374;SDS011;4727;51.202;6.344;2022-07-06T08:24:23;1.83;;;1.33;;
9374;SDS011;4727;51.202;6.344;2022-07-06T08:26:49;2.03;;;1.43;;
9374;SDS011;4727;51.202;6.344;2022-07-06T08:29:15;0.87;;;0.87;;
9374;SDS011;4727;51.202;6.344;2022-07-06T08:31:40;3.53;;;1.07;;
9374;SDS011;4727;51.202;6.344;2022-07-06T08:34:06;2.43;;;0.80;;
9374;SDS011;4727;51.202;6.344;2022-07-06T08:36:31;1.40;;;1.20;;
9374;SDS011;4727;51.202;6.344;2022-07-06T08:38:57;1.10;;;1.00;;
9374;SDS011;4727;51.202;6.344;2022-07-06T08:41:24;2.40;;;1.47;;
9374;SDS011;4727;51.202;6.344;2022-07-06T08:43:53;1.77;;;1.30;;
9374;SDS011;4727;51.202;6.344;2022-07-06T08:46:19;3.23;;;1.23;;
9374;SDS011;4727;51.202;6.344;2022-07-06T08:48:46;1.27;;;1.17;;
9374;SDS011;4727;51.202;6.344;2022-07-06T08:51:13;2.00;;;1.23;;
9374;SDS011;4727;51.202;6.344;2022-07-06T08:53:41;1.80;;;1.40;;
9374;SDS011;4727;51.202;6.344;2022-07-06T08:56:07;1.83;;;1.70;;
9374;SDS011;4727;51.202;6.344;2022-07-06T08:58:33;1.43;;;1.30;;
9374;SDS011;4727;51.202;6.344;2022-07-06T09:00:59;1.37;;;1.07;;
9374;SDS011;4727;51.202;6.344;2022-07-06T09:03:25;1.47;;;1.13;;
9374;SDS011;4727;51.202;6.344;2022-07-06T09:05:52;1.67;;;1.50;;
9374;SDS011;4727;51.202;6.344;2022-07-06T09:08:26;2.07;;;1.83;;
9374;SDS011;4727;51.202;6.344;2022-07-06T09:10:52;1.50;;;1.40;;
9374;SDS011;4727;51.202;6.344;2022-07-06T09:13:19;1.43;;;1.40;;
9374;SDS011;4727;51.202;6.344;2022-07-06T09:15:44;1.87;;;1.70;;
9374;SDS011;4727;51.202;6.344;2022-07-06T09:18:10;1.03;;;1.03;;
9374;SDS011;4727;51.202;6.344;2022-07-06T09:20:36;1.17;;;0.90;;
9374;SDS011;4727;51.202;6.344;2022-07-06T09:23:03;2.27;;;1.00;;
9374;SDS011;4727;51.202;6.344;2022-07-06T09:25:30;1.47;;;1.07;;
9374;SDS011;4727;51.202;6.344;2022-07-06T09:27:57;1.10;;;1.00;;
9374;SDS011;4727;51.202;6.344;2022-07-06T09:30:23;1.53;;;1.27;;
9374;SDS011;4727;51.202;6.344;2022-07-06T09:32:52;2.00;;;1.40;;
9374;SDS011;4727;51.202;6.344;2022-07-06T09:37:59;1.47;;;1.00;;
9374;SDS011;4727;51.202;6.344;2022-07-06T09:40:30;2.93;;;1.20;;
9374;SDS011;4727;51.202;6.344;2022-07-06T09:45:53;2.47;;;1.70;;
9374;SDS011;4727;51.202;6.344;2022-07-06T09:48:27;1.67;;;1.57;;
9374;SDS011;4727;51.202;6.344;2022-07-06T09:50:54;1.50;;;1.40;;
9374;SDS011;4727;51.202;6.344;2022-07-06T09:56:21;1.63;;;1.30;;
9374;SDS011;4727;51.202;6.344;2022-07-06T09:59:10;2.80;;;1.53;;
9374;SDS011;4727;51.202;6.344;2022-07-06T10:01:37;1.73;;;1.20;;
9374;SDS011;4727;51.202;6.344;2022-07-06T10:04:07;1.70;;;1.30;;
9374;SDS011;4727;51.202;6.344;2022-07-06T10:06:35;3.17;;;1.43;;
9374;SDS011;4727;51.202;6.344;2022-07-06T10:09:02;1.60;;;1.47;;
9374;SDS011;4727;51.202;6.344;2022-07-06T10:11:31;1.03;;;0.93;;
9374;SDS011;4727;51.202;6.344;2022-07-06T10:14:05;3.03;;;1.53;;
9374;SDS011;4727;51.202;6.344;2022-07-06T10:16:36;2.13;;;1.40;;
9374;SDS011;4727;51.202;6.344;2022-07-06T10:19:08;1.63;;;1.17;;
9374;SDS011;4727;51.202;6.344;2022-07-06T10:21:36;4.07;;;1.27;;
9374;SDS011;4727;51.202;6.344;2022-07-06T10:24:06;1.00;;;0.90;;
9374;SDS011;4727;51.202;6.344;2022-07-06T10:26:33;0.90;;;0.83;;
9374;SDS011;4727;51.202;6.344;2022-07-06T10:29:00;1.30;;;1.20;;
9374;SDS011;4727;51.202;6.344;2022-07-06T10:31:28;1.80;;;1.27;;
9374;SDS011;4727;51.202;6.344;2022-07-06T10:33:56;1.80;;;1.47;;
9374;SDS011;4727;51.202;6.344;2022-07-06T10:36:24;1.47;;;1.37;;
9374;SDS011;4727;51.202;6.344;2022-07-06T10:38:51;1.67;;;1.50;;
9374;SDS011;4727;51.202;6.344;2022-07-06T10:41:18;3.33;;;1.50;;
9374;SDS011;4727;51.202;6.344;2022-07-06T10:43:55;2.57;;;1.50;;
9374;SDS011;4727;51.202;6.344;2022-07-06T10:46:23;1.90;;;1.33;;
9374;SDS011;4727;51.202;6.344;2022-07-06T10:48:54;1.27;;;1.17;;
9374;SDS011;4727;51.202;6.344;2022-07-06T10:51:25;2.13;;;1.53;;
9374;SDS011;4727;51.202;6.344;2022-07-06T10:54:05;2.73;;;1.43;;
9374;SDS011;4727;51.202;6.344;2022-07-06T10:56:36;2.03;;;1.43;;
9374;SDS011;4727;51.202;6.344;2022-07-06T10:59:10;2.97;;;1.73;;
9374;SDS011;4727;51.202;6.344;2022-07-06T11:02:26;1.93;;;1.10;;
9374;SDS011;4727;51.202;6.344;2022-07-06T11:04:40;3.43;;;1.50;;
9374;SDS011;4727;51.202;6.344;2022-07-06T11:07:11;2.37;;;1.20;;
9374;SDS011;4727;51.202;6.344;2022-07-06T11:10:03;2.37;;;1.20;;
9374;SDS011;4727;51.202;6.344;2022-07-06T11:12:31;1.30;;;1.20;;
9374;SDS011;4727;51.202;6.344;2022-07-06T11:15:09;1.90;;;0.90;;
9374;SDS011;4727;51.202;6.344;2022-07-06T11:17:35;1.60;;;0.90;;
9374;SDS011;4727;51.202;6.344;2022-07-06T11:20:11;1.17;;;1.00;;
9374;SDS011;4727;51.202;6.344;2022-07-06T11:22:37;0.70;;;0.67;;
9374;SDS011;4727;51.202;6.344;2022-07-06T11:25:04;2.57;;;1.03;;
9374;SDS011;4727;51.202;6.344;2022-07-06T11:27:35;2.40;;;1.40;;
9374;SDS011;4727;51.202;6.344;2022-07-06T11:30:03;1.93;;;1.43;;
9374;SDS011;4727;51.202;6.344;2022-07-06T11:32:34;2.87;;;1.50;;
9374;SDS011;4727;51.202;6.344;2022-07-06T11:35:04;3.60;;;1.60;;
9374;SDS011;4727;51.202;6.344;2022-07-06T11:37:30;2.10;;;1.50;;
9374;SDS011;4727;51.202;6.344;2022-07-06T11:39:56;1.07;;;0.93;;
9374;SDS011;4727;51.202;6.344;2022-07-06T11:42:31;2.30;;;1.63;;
9374;SDS011;4727;51.202;6.344;2022-07-06T11:44:57;2.20;;;1.47;;
9374;SDS011;4727;51.202;6.344;2022-07-06T11:47:29;3.07;;;1.63;;
9374;SDS011;4727;51.202;6.344;2022-07-06T11:49:56;1.77;;;1.50;;
9374;SDS011;4727;51.202;6.344;2022-07-06T11:52:21;1.87;;;1.53;;
9374;SDS011;4727;51.202;6.344;2022-07-06T11:54:48;2.07;;;1.43;;
9374;SDS011;4727;51.202;6.344;2022-07-06T11:57:14;2.00;;;1.33;;
9374;SDS011;4727;51.202;6.344;2022-07-06T11:59:41;1.13;;;1.13;;
9374;SDS011;4727;51.202;6.344;2022-07-06T12:02:12;1.77;;;1.63;;
9374;SDS011;4727;51.202;6.344;2022-07-06T12:04:43;1.63;;;1.30;;
9374;SDS011;4727;51.202;6.344;2022-07-06T12:07:14;1.43;;;1.30;;
9374;SDS011;4727;51.202;6.344;2022-07-06T12:09:42;1.77;;;1.30;;
9374;SDS011;4727;51.202;6.344;2022-07-06T12:12:09;1.10;;;1.00;;
9374;SDS011;4727;51.202;6.344;2022-07-06T12:14:37;1.30;;;1.13;;
9374;SDS011;4727;51.202;6.344;2022-07-06T12:17:08;2.13;;;1.33;;
9374;SDS011;4727;51.202;6.344;2022-07-06T12:19:38;2.73;;;1.40;;
9374;SDS011;4727;51.202;6.344;2022-07-06T12:22:05;3.07;;;1.17;;
9374;SDS011;4727;51.202;6.344;2022-07-06T12:24:32;1.33;;;1.17;;
9374;SDS011;4727;51.202;6.344;2022-07-06T12:27:12;1.30;;;1.17;;
9374;SDS011;4727;51.202;6.344;2022-07-06T12:29:39;1.23;;;1.13;;
9374;SDS011;4727;51.202;6.344;2022-07-06T12:32:06;1.60;;;1.20;;
9374;SDS011;4727;51.202;6.344;2022-07-06T12:34:32;2.37;;;1.13;;
9374;SDS011;4727;51.202;6.344;2022-07-06T12:37:07;1.73;;;1.63;;
9374;SDS011;4727;51.202;6.344;2022-07-06T12:39:45;1.25;;;1.10;;
9374;SDS011;4727;51.202;6.344;2022-07-06T12:42:15;1.70;;;1.35;;
9374;SDS011;4727;51.202;6.344;2022-07-06T12:44:43;1.75;;;1.48;;
9374;SDS011;4727;51.202;6.344;2022-07-06T12:47:11;3.13;;;1.30;;
9374;SDS011;4727;51.202;6.344;2022-07-06T12:49:38;1.88;;;0.90;;
9374;SDS011;4727;51.202;6.344;2022-07-06T12:52:13;1.23;;;1.13;;
9374;SDS011;4727;51.202;6.344;2022-07-06T12:54:47;1.10;;;1.00;;
9374;SDS011;4727;51.202;6.344;2022-07-06T12:59:55;3.45;;;1.48;;
9374;SDS011;4727;51.202;6.344;2022-07-06T13:02:32;2.65;;;1.70;;
9374;SDS011;4727;51.202;6.344;2022-07-06T13:05:02;1.75;;;1.23;;
9374;SDS011;4727;51.202;6.344;2022-07-06T13:07:30;1.50;;;1.40;;
9374;SDS011;4727;51.202;6.344;2022-07-06T13:09:57;1.35;;;1.25;;
9374;SDS011;4727;51.202;6.344;2022-07-06T13:12:23;1.15;;;1.05;;
9374;SDS011;4727;51.202;6.344;2022-07-06T13:14:50;2.83;;;1.13;;
9374;SDS011;4727;51.202;6.344;2022-07-06T13:17:16;2.75;;;1.45;;
9374;SDS011;4727;51.202;6.344;2022-07-06T13:19:46;2.72;;;1.42;;
9374;SDS011;4727;51.202;6.344;2022-07-06T13:22:18;1.13;;;1.13;;
9374;SDS011;4727;51.202;6.344;2022-07-06T13:24:44;2.10;;;1.05;;
9374;SDS011;4727;51.202;6.344;2022-07-06T13:27:10;2.40;;;1.38;;
9374;SDS011;4727;51.202;6.344;2022-07-06T13:29:37;1.70;;;1.60;;
9374;SDS011;4727;51.202;6.344;2022-07-06T13:32:03;2.97;;;1.65;;
9374;SDS011;4727;51.202;6.344;2022-07-06T13:34:29;1.63;;;1.38;;
9374;SDS011;4727;51.202;6.344;2022-07-06T13:36:55;1.15;;;1.08;;
9374;SDS011;4727;51.202;6.344;2022-07-06T13:39:21;3.10;;;1.40;;
9374;SDS011;4727;51.202;6.344;2022-07-06T13:41:47;3.03;;;1.63;;
9374;SDS011;4727;51.202;6.344;2022-07-06T13:44:12;2.83;;;1.48;;
9374;SDS011;4727;51.202;6.344;2022-07-06T13:46:38;2.58;;;1.20;;
9374;SDS011;4727;51.202;6.344;2022-07-06T13:49:04;1.23;;;0.90;;
9374;SDS011;4727;51.202;6.344;2022-07-06T13:51:31;1.02;;;1.00;;
9374;SDS011;4727;51.202;6.344;2022-07-06T13:53:57;1.40;;;1.30;;
9374;SDS011;4727;51.202;6.344;2022-07-06T13:56:24;1.90;;;1.58;;
9374;SDS011;4727;51.202;6.344;2022-07-06T13:58:50;2.28;;;1.80;;
9374;SDS011;4727;51.202;6.344;2022-07-06T14:01:15;2.20;;;1.80;;
9374;SDS011;4727;51.202;6.344;2022-07-06T14:03:41;1.58;;;1.45;;
9374;SDS011;4727;51.202;6.344;2022-07-06T14:06:07;2.33;;;1.30;;
9374;SDS011;4727;51.202;6.344;2022-07-06T14:08:37;2.50;;;1.52;;
9374;SDS011;4727;51.202;6.344;2022-07-06T14:11:04;0.93;;;0.93;;
9374;SDS011;4727;51.202;6.344;2022-07-06T14:13:32;1.52;;;1.42;;
9374;SDS011;4727;51.202;6.344;2022-07-06T14:15:58;3.67;;;1.58;;
9374;SDS011;4727;51.202;6.344;2022-07-06T14:18:24;1.70;;;1.40;;
9374;SDS011;4727;51.202;6.344;2022-07-06T14:20:50;2.90;;;1.85;;
9374;SDS011;4727;51.202;6.344;2022-07-06T14:23:16;1.63;;;1.38;;
9374;SDS011;4727;51.202;6.344;2022-07-06T14:25:43;2.08;;;1.30;;
9374;SDS011;4727;51.202;6.344;2022-07-06T14:28:09;1.42;;;1.33;;
9374;SDS011;4727;51.202;6.344;2022-07-06T14:30:38;1.75;;;1.65;;
9374;SDS011;4727;51.202;6.344;2022-07-06T14:33:05;1.65;;;1.52;;
9374;SDS011;4727;51.202;6.344;2022-07-06T14:35:38;4.88;;;1.83;;
9374;SDS011;4727;51.202;6.344;2022-07-06T14:38:06;2.78;;;1.45;;
9374;SDS011;4727;51.202;6.344;2022-07-06T14:40:32;1.80;;;1.70;;
9374;SDS011;4727;51.202;6.344;2022-07-06T14:42:59;1.98;;;1.45;;
9374;SDS011;4727;51.202;6.344;2022-07-06T14:45:25;4.07;;;1.40;;
9374;SDS011;4727;51.202;6.344;2022-07-06T14:47:51;1.80;;;1.70;;
9374;SDS011;4727;51.202;6.344;2022-07-06T14:50:16;1.60;;;1.50;;
9374;SDS011;4727;51.202;6.344;2022-07-06T14:52:42;2.25;;;1.50;;
9374;SDS011;4727;51.202;6.344;2022-07-06T14:55:08;2.25;;;1.77;;
9374;SDS011;4727;51.202;6.344;2022-07-06T14:57:34;2.85;;;1.55;;
9374;SDS011;4727;51.202;6.344;2022-07-06T14:59:59;2.08;;;1.88;;
9374;SDS011;4727;51.202;6.344;2022-07-06T15:02:25;1.88;;;1.58;;
9374;SDS011;4727;51.202;6.344;2022-07-06T15:04:51;1.55;;;1.42;;
9374;SDS011;4727;51.202;6.344;2022-07-06T15:07:16;2.05;;;1.75;;
9374;SDS011;4727;51.202;6.344;2022-07-06T15:09:42;3.08;;;1.80;;
9374;SDS011;4727;51.202;6.344;2022-07-06T15:12:08;1.60;;;1.50;;
9374;SDS011;4727;51.202;6.344;2022-07-06T15:14:34;1.10;;;1.10;;
9374;SDS011;4727;51.202;6.344;2022-07-06T15:17:00;2.55;;;1.52;;
9374;SDS011;4727;51.202;6.344;2022-07-06T15:19:26;2.92;;;1.60;;
9374;SDS011;4727;51.202;6.344;2022-07-06T15:21:52;1.52;;;1.42;;
9374;SDS011;4727;51.202;6.344;2022-07-06T15:24:18;2.38;;;2.13;;
9374;SDS011;4727;51.202;6.344;2022-07-06T15:26:44;3.47;;;1.85;;